sensor_id;sensor_type;location;lat;lon;timestamp;temperature;humidity
14409;DHT22;7289;50.706;4.992;2022-12-31T00:00:38;14.30;99.90
14409;DHT22;7289;50.706;4.992;2022-12-31T00:03:08;14.30;99.90
14409;DHT22;7289;50.706;4.992;2022-12-31T00:05:38;14.30;99.90
14409;DHT22;7289;50.706;4.992;2022-12-31T00:08:06;14.30;99.90
14409;DHT22;7289;50.706;4.992;2022-12-31T00:10:34;14.40;99.90
14409;DHT22;7289;50.706;4.992;2022-12-31T00:13:07;14.40;99.90
14409;DHT22;7289;50.706;4.992;2022-12-31T00:15:36;14.30;99.90
14409;DHT22;7289;50.706;4.992;2022-12-31T00:18:05;14.30;99.90
14409;DHT22;7289;50.706;4.992;2022-12-31T00:20:33;14.30;99.90
14409;DHT22;7289;50.706;4.992;2022-12-31T00:23:03;14.20;99.90
14409;DHT22;7289;50.706;4.992;2022-12-31T00:25:33;14.30;99.90
14409;DHT22;7289;50.706;4.992;2022-12-31T00:28:02;14.30;99.90
14409;DHT22;7289;50.706;4.992;2022-12-31T00:30:30;14.30;99.90
14409;DHT22;7289;50.706;4.992;2022-12-31T00:32:59;14.30;99.90
14409;DHT22;7289;50.706;4.992;2022-12-31T00:35:27;14.40;99.90
14409;DHT22;7289;50.706;4.992;2022-12-31T00:37:55;14.40;99.90
14409;DHT22;7289;50.706;4.992;2022-12-31T00:40:25;14.40;99.90
14409;DHT22;7289;50.706;4.992;2022-12-31T00:42:53;14.40;99.90
14409;DHT22;7289;50.706;4.992;2022-12-31T00:45:21;14.40;99.90
14409;DHT22;7289;50.706;4.992;2022-12-31T00:47:49;14.40;99.90
14409;DHT22;7289;50.706;4.992;2022-12-31T00:50:18;14.40;99.90
14409;DHT22;7289;50.706;4.992;2022-12-31T00:52:47;14.50;99.90
14409;DHT22;7289;50.706;4.992;2022-12-31T00:55:15;14.50;99.90
14409;DHT22;7289;50.706;4.992;2022-12-31T00:57:44;14.50;99.90
14409;DHT22;7289;50.706;4.992;2022-12-31T01:00:14;14.50;99.90
14409;DHT22;7289;50.706;4.992;2022-12-31T01:02:43;14.50;99.90
14409;DHT22;7289;50.706;4.992;2022-12-31T01:05:11;14.60;99.90
14409;DHT22;7289;50.706;4.992;2022-12-31T01:07:39;14.70;99.90
14409;DHT22;7289;50.706;4.992;2022-12-31T01:10:08;14.70;99.90
14409;DHT22;7289;50.706;4.992;2022-12-31T01:12:36;14.70;99.90
14409;DHT22;7289;50.706;4.992;2022-12-31T01:15:07;14.80;99.90
14409;DHT22;7289;50.706;4.992;2022-12-31T01:17:35;14.90;99.90
14409;DHT22;7289;50.706;4.992;2022-12-31T01:20:05;14.90;99.90
14409;DHT22;7289;50.706;4.992;2022-12-31T01:22:33;15.00;99.90
14409;DHT22;7289;50.706;4.992;2022-12-31T01:25:01;15.10;99.90
14409;DHT22;7289;50.706;4.992;2022-12-31T01:27:29;15.10;99.90
14409;DHT22;7289;50.706;4.992;2022-12-31T01:29:58;15.20;99.90
14409;DHT22;7289;50.706;4.992;2022-12-31T01:32:27;15.20;99.90
14409;DHT22;7289;50.706;4.992;2022-12-31T01:34:55;15.20;99.90
14409;DHT22;7289;50.706;4.992;2022-12-31T01:37:24;15.20;99.90
14409;DHT22;7289;50.706;4.992;2022-12-31T01:39:52;15.30;99.90
14409;DHT22;7289;50.706;4.992;2022-12-31T01:42:20;15.30;99.90
14409;DHT22;7289;50.706;4.992;2022-12-31T01:44:51;15.30;99.90
14409;DHT22;7289;50.706;4.992;2022-12-31T01:47:34;15.30;99.90
14409;DHT22;7289;50.706;4.992;2022-12-31T01:50:09;15.30;99.90
14409;DHT22;7289;50.706;4.992;2022-12-31T01:52:40;15.30;99.90
14409;DHT22;7289;50.706;4.992;2022-12-31T01:55:15;15.30;99.90
14409;DHT22;7289;50.706;4.992;2022-12-31T01:57:45;15.30;99.90
14409;DHT22;7289;50.706;4.992;2022-12-31T02:00:15;15.30;99.90
14409;DHT22;7289;50.706;4.992;2022-12-31T02:02:45;15.30;99.90
14409;DHT22;7289;50.706;4.992;2022-12-31T02:05:21;15.30;99.90
14409;DHT22;7289;50.706;4.992;2022-12-31T02:07:51;15.30;99.90
14409;DHT22;7289;50.706;4.992;2022-12-31T02:10:20;15.30;99.90
14409;DHT22;7289;50.706;4.992;2022-12-31T02:12:48;15.20;99.90
14409;DHT22;7289;50.706;4.992;2022-12-31T02:15:18;15.20;99.90
14409;DHT22;7289;50.706;4.992;2022-12-31T02:17:53;15.10;99.90
14409;DHT22;7289;50.706;4.992;2022-12-31T02:21:02;15.10;99.90
14409;DHT22;7289;50.706;4.992;2022-12-31T02:23:57;15.10;99.90
14409;DHT22;7289;50.706;4.992;2022-12-31T02:26:41;15.10;99.90
14409;DHT22;7289;50.706;4.992;2022-12-31T02:32:30;15.10;99.90
14409;DHT22;7289;50.706;4.992;2022-12-31T02:35:07;15.00;99.90
14409;DHT22;7289;50.706;4.992;2022-12-31T02:37:39;14.80;99.90
14409;DHT22;7289;50.706;4.992;2022-12-31T02:40:13;14.70;99.90
14409;DHT22;7289;50.706;4.992;2022-12-31T02:42:42;14.70;99.90
14409;DHT22;7289;50.706;4.992;2022-12-31T02:45:21;14.70;99.90
14409;DHT22;7289;50.706;4.992;2022-12-31T02:48:01;14.60;99.90
14409;DHT22;7289;50.706;4.992;2022-12-31T02:50:37;14.60;99.90
14409;DHT22;7289;50.706;4.992;2022-12-31T02:53:35;14.60;99.90
14409;DHT22;7289;50.706;4.992;2022-12-31T02:56:10;14.50;99.90
14409;DHT22;7289;50.706;4.992;2022-12-31T02:58:47;14.60;99.90
14409;DHT22;7289;50.706;4.992;2022-12-31T03:01:40;14.60;99.90
14409;DHT22;7289;50.706;4.992;2022-12-31T03:04:31;14.60;99.90
14409;DHT22;7289;50.706;4.992;2022-12-31T03:07:03;14.70;99.90
14409;DHT22;7289;50.706;4.992;2022-12-31T03:09:33;14.70;99.90
14409;DHT22;7289;50.706;4.992;2022-12-31T03:12:02;14.70;99.90
14409;DHT22;7289;50.706;4.992;2022-12-31T03:14:48;14.80;99.90
14409;DHT22;7289;50.706;4.992;2022-12-31T03:17:17;14.80;99.90
14409;DHT22;7289;50.706;4.992;2022-12-31T03:19:47;14.80;99.90
14409;DHT22;7289;50.706;4.992;2022-12-31T03:22:34;14.80;99.90
14409;DHT22;7289;50.706;4.992;2022-12-31T03:25:05;14.90;99.90
14409;DHT22;7289;50.706;4.992;2022-12-31T03:27:52;15.10;99.90
14409;DHT22;7289;50.706;4.992;2022-12-31T03:30:21;15.10;99.90
14409;DHT22;7289;50.706;4.992;2022-12-31T03:32:50;15.20;99.90
14409;DHT22;7289;50.706;4.992;2022-12-31T03:35:20;15.30;99.90
14409;DHT22;7289;50.706;4.992;2022-12-31T03:37:50;15.40;99.90
14409;DHT22;7289;50.706;4.992;2022-12-31T03:40:23;15.40;99.90
14409;DHT22;7289;50.706;4.992;2022-12-31T03:42:52;15.50;99.90
14409;DHT22;7289;50.706;4.992;2022-12-31T03:45:20;15.50;99.90
14409;DHT22;7289;50.706;4.992;2022-12-31T03:47:49;15.50;99.90
14409;DHT22;7289;50.706;4.992;2022-12-31T03:50:19;15.50;99.90
14409;DHT22;7289;50.706;4.992;2022-12-31T03:52:47;15.60;99.90
14409;DHT22;7289;50.706;4.992;2022-12-31T03:55:16;15.60;99.90
14409;DHT22;7289;50.706;4.992;2022-12-31T03:57:44;15.60;99.90
14409;DHT22;7289;50.706;4.992;2022-12-31T04:00:15;15.50;99.90
14409;DHT22;7289;50.706;4.992;2022-12-31T04:02:45;15.60;99.90
14409;DHT22;7289;50.706;4.992;2022-12-31T04:05:15;15.60;99.90
14409;DHT22;7289;50.706;4.992;2022-12-31T04:07:45;15.60;99.90
14409;DHT22;7289;50.706;4.992;2022-12-31T04:10:15;15.60;99.90
14409;DHT22;7289;50.706;4.992;2022-12-31T04:12:44;15.60;99.90
14409;DHT22;7289;50.706;4.992;2022-12-31T04:15:17;15.60;99.90
14409;DHT22;7289;50.706;4.992;2022-12-31T04:17:46;15.70;99.90
14409;DHT22;7289;50.706;4.992;2022-12-31T04:20:15;15.70;99.90
14409;DHT22;7289;50.706;4.992;2022-12-31T04:22:44;15.80;99.90
14409;DHT22;7289;50.706;4.992;2022-12-31T04:25:13;15.80;99.90
14409;DHT22;7289;50.706;4.992;2022-12-31T04:27:43;15.90;99.90
14409;DHT22;7289;50.706;4.992;2022-12-31T04:30:12;15.90;99.90
14409;DHT22;7289;50.706;4.992;2022-12-31T04:32:41;15.90;99.90
14409;DHT22;7289;50.706;4.992;2022-12-31T04:35:11;15.90;99.90
14409;DHT22;7289;50.706;4.992;2022-12-31T04:37:39;15.90;99.90
14409;DHT22;7289;50.706;4.992;2022-12-31T04:40:09;15.90;99.90
14409;DHT22;7289;50.706;4.992;2022-12-31T04:42:38;15.90;99.90
14409;DHT22;7289;50.706;4.992;2022-12-31T04:45:07;15.80;99.90
14409;DHT22;7289;50.706;4.992;2022-12-31T04:47:35;15.80;99.90
14409;DHT22;7289;50.706;4.992;2022-12-31T04:50:04;15.80;99.90
14409;DHT22;7289;50.706;4.992;2022-12-31T04:52:33;15.80;99.90
14409;DHT22;7289;50.706;4.992;2022-12-31T04:55:10;15.80;99.90
14409;DHT22;7289;50.706;4.992;2022-12-31T04:57:39;15.80;99.90
14409;DHT22;7289;50.706;4.992;2022-12-31T05:00:08;15.90;99.90
14409;DHT22;7289;50.706;4.992;2022-12-31T05:02:37;15.90;99.90
14409;DHT22;7289;50.706;4.992;2022-12-31T05:05:06;15.90;99.90
14409;DHT22;7289;50.706;4.992;2022-12-31T05:07:34;16.00;99.90
14409;DHT22;7289;50.706;4.992;2022-12-31T05:10:03;16.00;99.90
14409;DHT22;7289;50.706;4.992;2022-12-31T05:12:33;16.00;99.90
14409;DHT22;7289;50.706;4.992;2022-12-31T05:15:01;16.10;99.90
14409;DHT22;7289;50.706;4.992;2022-12-31T05:17:29;16.10;99.90
14409;DHT22;7289;50.706;4.992;2022-12-31T05:19:57;16.10;99.90
14409;DHT22;7289;50.706;4.992;2022-12-31T05:22:25;16.10;99.90
14409;DHT22;7289;50.706;4.992;2022-12-31T05:24:57;16.10;99.90
14409;DHT22;7289;50.706;4.992;2022-12-31T05:27:27;16.10;99.90
14409;DHT22;7289;50.706;4.992;2022-12-31T05:29:58;16.20;99.90
14409;DHT22;7289;50.706;4.992;2022-12-31T05:32:27;16.20;99.90
14409;DHT22;7289;50.706;4.992;2022-12-31T05:34:56;16.20;99.90
14409;DHT22;7289;50.706;4.992;2022-12-31T05:37:27;16.30;99.90
14409;DHT22;7289;50.706;4.992;2022-12-31T05:39:56;16.30;99.90
14409;DHT22;7289;50.706;4.992;2022-12-31T05:42:24;16.30;99.90
14409;DHT22;7289;50.706;4.992;2022-12-31T05:44:52;16.20;99.90
14409;DHT22;7289;50.706;4.992;2022-12-31T05:47:22;16.10;99.90
14409;DHT22;7289;50.706;4.992;2022-12-31T05:49:51;16.00;99.90
14409;DHT22;7289;50.706;4.992;2022-12-31T05:52:19;15.90;99.90
14409;DHT22;7289;50.706;4.992;2022-12-31T05:54:47;15.90;99.90
14409;DHT22;7289;50.706;4.992;2022-12-31T05:57:15;15.90;99.90
14409;DHT22;7289;50.706;4.992;2022-12-31T05:59:43;15.80;99.90
14409;DHT22;7289;50.706;4.992;2022-12-31T06:02:12;15.80;99.90
14409;DHT22;7289;50.706;4.992;2022-12-31T06:04:41;16.00;99.90
14409;DHT22;7289;50.706;4.992;2022-12-31T06:07:10;16.00;99.90
14409;DHT22;7289;50.706;4.992;2022-12-31T06:09:38;16.10;99.90
14409;DHT22;7289;50.706;4.992;2022-12-31T06:12:06;16.10;99.90
14409;DHT22;7289;50.706;4.992;2022-12-31T06:14:35;16.10;99.90
14409;DHT22;7289;50.706;4.992;2022-12-31T06:17:11;16.20;99.90
14409;DHT22;7289;50.706;4.992;2022-12-31T06:19:41;16.20;99.90
14409;DHT22;7289;50.706;4.992;2022-12-31T06:22:09;16.20;99.90
14409;DHT22;7289;50.706;4.992;2022-12-31T06:24:37;16.20;99.90
14409;DHT22;7289;50.706;4.992;2022-12-31T06:27:05;16.30;99.90
14409;DHT22;7289;50.706;4.992;2022-12-31T06:29:33;16.40;99.90
14409;DHT22;7289;50.706;4.992;2022-12-31T06:32:02;16.40;99.90
14409;DHT22;7289;50.706;4.992;2022-12-31T06:34:30;16.40;99.90
14409;DHT22;7289;50.706;4.992;2022-12-31T06:37:00;16.50;99.90
14409;DHT22;7289;50.706;4.992;2022-12-31T06:39:28;16.50;99.90
14409;DHT22;7289;50.706;4.992;2022-12-31T06:41:56;16.40;99.90
14409;DHT22;7289;50.706;4.992;2022-12-31T06:44:25;16.30;99.90
14409;DHT22;7289;50.706;4.992;2022-12-31T06:46:53;16.40;99.90
14409;DHT22;7289;50.706;4.992;2022-12-31T06:49:21;16.40;99.90
14409;DHT22;7289;50.706;4.992;2022-12-31T06:51:49;16.40;99.90
14409;DHT22;7289;50.706;4.992;2022-12-31T06:54:19;16.40;99.90
14409;DHT22;7289;50.706;4.992;2022-12-31T06:56:48;16.40;99.90
14409;DHT22;7289;50.706;4.992;2022-12-31T06:59:24;16.40;99.90
14409;DHT22;7289;50.706;4.992;2022-12-31T07:02:20;16.50;99.90
14409;DHT22;7289;50.706;4.992;2022-12-31T07:05:24;16.50;99.90
14409;DHT22;7289;50.706;4.992;2022-12-31T07:08:01;16.40;99.90
14409;DHT22;7289;50.706;4.992;2022-12-31T07:10:39;16.40;99.90
14409;DHT22;7289;50.706;4.992;2022-12-31T07:13:27;16.50;99.90
14409;DHT22;7289;50.706;4.992;2022-12-31T07:16:05;16.30;99.90
14409;DHT22;7289;50.706;4.992;2022-12-31T07:18:41;16.30;99.90
14409;DHT22;7289;50.706;4.992;2022-12-31T07:21:14;16.20;99.90
14409;DHT22;7289;50.706;4.992;2022-12-31T07:23:43;16.10;99.90
14409;DHT22;7289;50.706;4.992;2022-12-31T07:26:19;16.10;99.90
14409;DHT22;7289;50.706;4.992;2022-12-31T07:28:57;16.10;99.90
14409;DHT22;7289;50.706;4.992;2022-12-31T07:31:36;16.10;99.90
14409;DHT22;7289;50.706;4.992;2022-12-31T07:34:13;16.20;99.90
14409;DHT22;7289;50.706;4.992;2022-12-31T07:36:53;16.20;99.90
14409;DHT22;7289;50.706;4.992;2022-12-31T07:39:33;16.30;99.90
14409;DHT22;7289;50.706;4.992;2022-12-31T07:42:10;16.20;99.90
14409;DHT22;7289;50.706;4.992;2022-12-31T07:44:47;16.10;99.90
14409;DHT22;7289;50.706;4.992;2022-12-31T07:47:20;15.90;99.90
14409;DHT22;7289;50.706;4.992;2022-12-31T07:49:49;15.80;99.90
14409;DHT22;7289;50.706;4.992;2022-12-31T07:52:18;15.70;99.90
14409;DHT22;7289;50.706;4.992;2022-12-31T07:54:47;15.80;99.90
14409;DHT22;7289;50.706;4.992;2022-12-31T07:57:18;15.80;99.90
14409;DHT22;7289;50.706;4.992;2022-12-31T07:59:54;15.90;99.90
14409;DHT22;7289;50.706;4.992;2022-12-31T08:05:31;16.20;99.90
14409;DHT22;7289;50.706;4.992;2022-12-31T08:08:10;16.20;99.90
14409;DHT22;7289;50.706;4.992;2022-12-31T08:10:46;16.30;99.90
14409;DHT22;7289;50.706;4.992;2022-12-31T08:13:18;16.30;99.90
14409;DHT22;7289;50.706;4.992;2022-12-31T08:15:47;16.20;99.90
14409;DHT22;7289;50.706;4.992;2022-12-31T08:18:16;16.30;99.90
14409;DHT22;7289;50.706;4.992;2022-12-31T08:20:51;16.30;99.90
14409;DHT22;7289;50.706;4.992;2022-12-31T08:23:30;16.30;99.90
14409;DHT22;7289;50.706;4.992;2022-12-31T08:26:13;16.30;99.90
14409;DHT22;7289;50.706;4.992;2022-12-31T08:28:55;16.30;99.90
14409;DHT22;7289;50.706;4.992;2022-12-31T08:31:32;16.40;99.90
14409;DHT22;7289;50.706;4.992;2022-12-31T08:34:07;16.40;99.90
14409;DHT22;7289;50.706;4.992;2022-12-31T08:36:44;16.40;99.90
14409;DHT22;7289;50.706;4.992;2022-12-31T08:39:24;16.40;99.90
14409;DHT22;7289;50.706;4.992;2022-12-31T08:41:56;16.40;99.90
14409;DHT22;7289;50.706;4.992;2022-12-31T08:44:32;16.50;99.90
14409;DHT22;7289;50.706;4.992;2022-12-31T08:47:10;16.50;99.90
14409;DHT22;7289;50.706;4.992;2022-12-31T08:49:43;16.60;99.90
14409;DHT22;7289;50.706;4.992;2022-12-31T08:52:14;16.60;99.90
14409;DHT22;7289;50.706;4.992;2022-12-31T08:54:44;16.70;99.90
14409;DHT22;7289;50.706;4.992;2022-12-31T08:57:17;16.70;99.90
14409;DHT22;7289;50.706;4.992;2022-12-31T08:59:54;16.80;99.90
14409;DHT22;7289;50.706;4.992;2022-12-31T09:02:39;16.90;99.90
14409;DHT22;7289;50.706;4.992;2022-12-31T09:05:18;16.90;99.90
14409;DHT22;7289;50.706;4.992;2022-12-31T09:07:56;16.90;99.90
14409;DHT22;7289;50.706;4.992;2022-12-31T09:10:30;16.90;99.90
14409;DHT22;7289;50.706;4.992;2022-12-31T09:13:05;16.90;99.90
14409;DHT22;7289;50.706;4.992;2022-12-31T09:15:41;17.00;99.90
14409;DHT22;7289;50.706;4.992;2022-12-31T09:18:11;17.00;99.90
14409;DHT22;7289;50.706;4.992;2022-12-31T09:20:40;17.00;99.90
14409;DHT22;7289;50.706;4.992;2022-12-31T09:23:11;17.10;99.90
14409;DHT22;7289;50.706;4.992;2022-12-31T09:25:44;17.10;99.90
14409;DHT22;7289;50.706;4.992;2022-12-31T09:28:16;17.20;99.90
14409;DHT22;7289;50.706;4.992;2022-12-31T09:30:53;17.30;99.90
14409;DHT22;7289;50.706;4.992;2022-12-31T09:33:37;17.30;99.90
14409;DHT22;7289;50.706;4.992;2022-12-31T09:36:09;17.30;99.90
14409;DHT22;7289;50.706;4.992;2022-12-31T09:38:47;17.30;99.90
14409;DHT22;7289;50.706;4.992;2022-12-31T09:41:35;17.30;99.90
14409;DHT22;7289;50.706;4.992;2022-12-31T09:44:40;17.30;99.90
14409;DHT22;7289;50.706;4.992;2022-12-31T09:50:32;17.50;99.90
14409;DHT22;7289;50.706;4.992;2022-12-31T09:53:20;17.60;99.90
14409;DHT22;7289;50.706;4.992;2022-12-31T09:55:55;17.60;99.90
14409;DHT22;7289;50.706;4.992;2022-12-31T09:58:37;17.60;99.90
14409;DHT22;7289;50.706;4.992;2022-12-31T10:01:26;17.50;99.90
14409;DHT22;7289;50.706;4.992;2022-12-31T10:06:59;17.50;99.90
14409;DHT22;7289;50.706;4.992;2022-12-31T10:09:53;17.50;99.90
14409;DHT22;7289;50.706;4.992;2022-12-31T10:12:41;17.50;99.90
14409;DHT22;7289;50.706;4.992;2022-12-31T10:18:21;17.60;99.90
14409;DHT22;7289;50.706;4.992;2022-12-31T10:21:00;17.70;99.90
14409;DHT22;7289;50.706;4.992;2022-12-31T10:23:45;17.60;99.90
14409;DHT22;7289;50.706;4.992;2022-12-31T10:26:29;17.60;99.90
14409;DHT22;7289;50.706;4.992;2022-12-31T10:29:14;17.60;99.90
14409;DHT22;7289;50.706;4.992;2022-12-31T10:31:52;17.60;99.90
14409;DHT22;7289;50.706;4.992;2022-12-31T10:34:25;17.60;99.90
14409;DHT22;7289;50.706;4.992;2022-12-31T10:36:57;17.40;99.90
14409;DHT22;7289;50.706;4.992;2022-12-31T10:39:40;17.30;99.90
14409;DHT22;7289;50.706;4.992;2022-12-31T10:42:42;17.30;99.90
14409;DHT22;7289;50.706;4.992;2022-12-31T10:52:19;17.20;99.90
14409;DHT22;7289;50.706;4.992;2022-12-31T10:55:22;17.10;99.90
14409;DHT22;7289;50.706;4.992;2022-12-31T11:01:17;17.10;99.90
14409;DHT22;7289;50.706;4.992;2022-12-31T11:04:18;17.20;99.90
14409;DHT22;7289;50.706;4.992;2022-12-31T11:10:52;17.40;99.90
14409;DHT22;7289;50.706;4.992;2022-12-31T11:14:01;17.40;99.90
14409;DHT22;7289;50.706;4.992;2022-12-31T11:16:43;17.30;99.90
14409;DHT22;7289;50.706;4.992;2022-12-31T11:19:18;17.30;99.90
14409;DHT22;7289;50.706;4.992;2022-12-31T11:22:01;17.20;99.90
14409;DHT22;7289;50.706;4.992;2022-12-31T11:24:40;17.30;99.90
14409;DHT22;7289;50.706;4.992;2022-12-31T11:27:37;17.30;99.90
14409;DHT22;7289;50.706;4.992;2022-12-31T11:30:20;17.30;99.90
14409;DHT22;7289;50.706;4.992;2022-12-31T11:33:00;17.40;99.90
14409;DHT22;7289;50.706;4.992;2022-12-31T11:35:43;17.40;99.90
14409;DHT22;7289;50.706;4.992;2022-12-31T11:38:22;17.40;99.90
14409;DHT22;7289;50.706;4.992;2022-12-31T11:40:58;17.40;99.90
14409;DHT22;7289;50.706;4.992;2022-12-31T11:43:33;17.30;99.90
14409;DHT22;7289;50.706;4.992;2022-12-31T11:46:24;17.30;99.90
14409;DHT22;7289;50.706;4.992;2022-12-31T11:49:09;17.50;99.90
14409;DHT22;7289;50.706;4.992;2022-12-31T11:51:50;17.50;99.90
14409;DHT22;7289;50.706;4.992;2022-12-31T11:54:44;17.50;99.90
14409;DHT22;7289;50.706;4.992;2022-12-31T11:57:23;17.60;99.90
14409;DHT22;7289;50.706;4.992;2022-12-31T11:59:57;17.50;99.90
14409;DHT22;7289;50.706;4.992;2022-12-31T12:02:28;17.50;99.90
14409;DHT22;7289;50.706;4.992;2022-12-31T12:05:01;17.50;99.90
14409;DHT22;7289;50.706;4.992;2022-12-31T12:07:37;17.60;99.90
14409;DHT22;7289;50.706;4.992;2022-12-31T12:10:16;17.40;99.90
14409;DHT22;7289;50.706;4.992;2022-12-31T12:12:46;17.40;99.90
14409;DHT22;7289;50.706;4.992;2022-12-31T12:15:21;17.30;99.90
14409;DHT22;7289;50.706;4.992;2022-12-31T12:17:52;17.20;99.90
14409;DHT22;7289;50.706;4.992;2022-12-31T12:20:27;17.00;99.90
14409;DHT22;7289;50.706;4.992;2022-12-31T12:22:58;16.90;99.90
14409;DHT22;7289;50.706;4.992;2022-12-31T12:25:36;16.70;99.90
14409;DHT22;7289;50.706;4.992;2022-12-31T12:28:17;16.60;99.90
14409;DHT22;7289;50.706;4.992;2022-12-31T12:30:53;16.50;99.90
14409;DHT22;7289;50.706;4.992;2022-12-31T12:33:22;16.50;99.90
14409;DHT22;7289;50.706;4.992;2022-12-31T12:35:50;16.50;99.90
14409;DHT22;7289;50.706;4.992;2022-12-31T12:38:20;16.40;99.90
14409;DHT22;7289;50.706;4.992;2022-12-31T12:40:54;16.50;99.90
14409;DHT22;7289;50.706;4.992;2022-12-31T12:43:24;16.40;99.90
14409;DHT22;7289;50.706;4.992;2022-12-31T12:45:57;16.50;99.90
14409;DHT22;7289;50.706;4.992;2022-12-31T12:48:31;16.50;99.90
14409;DHT22;7289;50.706;4.992;2022-12-31T12:51:11;16.50;99.90
14409;DHT22;7289;50.706;4.992;2022-12-31T12:53:46;16.60;99.90
14409;DHT22;7289;50.706;4.992;2022-12-31T12:56:28;16.60;99.90
14409;DHT22;7289;50.706;4.992;2022-12-31T12:59:12;16.70;99.90
14409;DHT22;7289;50.706;4.992;2022-12-31T13:01:54;16.80;99.90
14409;DHT22;7289;50.706;4.992;2022-12-31T13:04:44;16.80;99.90
14409;DHT22;7289;50.706;4.992;2022-12-31T13:07:25;16.90;99.90
14409;DHT22;7289;50.706;4.992;2022-12-31T13:10:07;17.00;99.90
14409;DHT22;7289;50.706;4.992;2022-12-31T13:12:45;17.00;99.90
14409;DHT22;7289;50.706;4.992;2022-12-31T13:15:39;17.00;99.90
14409;DHT22;7289;50.706;4.992;2022-12-31T13:18:27;17.00;99.90
14409;DHT22;7289;50.706;4.992;2022-12-31T13:21:02;17.00;99.90
14409;DHT22;7289;50.706;4.992;2022-12-31T13:23:38;17.00;99.90
14409;DHT22;7289;50.706;4.992;2022-12-31T13:26:13;17.00;99.90
14409;DHT22;7289;50.706;4.992;2022-12-31T13:28:45;17.00;99.90
14409;DHT22;7289;50.706;4.992;2022-12-31T13:31:18;16.90;99.90
14409;DHT22;7289;50.706;4.992;2022-12-31T13:33:53;16.90;99.90
14409;DHT22;7289;50.706;4.992;2022-12-31T13:36:24;16.90;99.90
14409;DHT22;7289;50.706;4.992;2022-12-31T13:38:56;16.90;99.90
14409;DHT22;7289;50.706;4.992;2022-12-31T13:41:27;16.90;99.90
14409;DHT22;7289;50.706;4.992;2022-12-31T13:44:01;16.90;99.90
14409;DHT22;7289;50.706;4.992;2022-12-31T13:46:37;16.80;99.90
14409;DHT22;7289;50.706;4.992;2022-12-31T13:49:14;16.80;99.90
14409;DHT22;7289;50.706;4.992;2022-12-31T13:51:46;16.70;99.90
14409;DHT22;7289;50.706;4.992;2022-12-31T13:54:25;16.70;99.90
14409;DHT22;7289;50.706;4.992;2022-12-31T13:56:57;16.70;99.90
14409;DHT22;7289;50.706;4.992;2022-12-31T13:59:30;16.60;99.90
14409;DHT22;7289;50.706;4.992;2022-12-31T14:02:05;16.60;99.90
14409;DHT22;7289;50.706;4.992;2022-12-31T14:04:40;16.50;99.90
14409;DHT22;7289;50.706;4.992;2022-12-31T14:07:12;16.40;99.90
14409;DHT22;7289;50.706;4.992;2022-12-31T14:09:42;16.40;99.90
14409;DHT22;7289;50.706;4.992;2022-12-31T14:12:26;16.30;99.90
14409;DHT22;7289;50.706;4.992;2022-12-31T14:15:05;16.30;99.90
14409;DHT22;7289;50.706;4.992;2022-12-31T14:17:47;16.30;99.90
14409;DHT22;7289;50.706;4.992;2022-12-31T14:20:25;16.30;99.90
14409;DHT22;7289;50.706;4.992;2022-12-31T14:22:59;16.30;99.90
14409;DHT22;7289;50.706;4.992;2022-12-31T14:25:32;16.40;99.90
14409;DHT22;7289;50.706;4.992;2022-12-31T14:28:03;16.30;99.90
14409;DHT22;7289;50.706;4.992;2022-12-31T14:30:35;16.20;99.90
14409;DHT22;7289;50.706;4.992;2022-12-31T14:33:20;16.20;99.90
14409;DHT22;7289;50.706;4.992;2022-12-31T14:36:00;16.10;99.90
14409;DHT22;7289;50.706;4.992;2022-12-31T14:38:49;16.10;99.90
14409;DHT22;7289;50.706;4.992;2022-12-31T14:41:29;16.10;99.90
14409;DHT22;7289;50.706;4.992;2022-12-31T14:44:13;16.00;99.90
14409;DHT22;7289;50.706;4.992;2022-12-31T14:46:56;16.00;99.90
14409;DHT22;7289;50.706;4.992;2022-12-31T14:49:37;16.00;99.90
14409;DHT22;7289;50.706;4.992;2022-12-31T14:52:20;15.90;99.90
14409;DHT22;7289;50.706;4.992;2022-12-31T14:55:00;15.90;99.90
14409;DHT22;7289;50.706;4.992;2022-12-31T14:57:36;15.90;99.90
14409;DHT22;7289;50.706;4.992;2022-12-31T15:00:31;15.90;99.90
14409;DHT22;7289;50.706;4.992;2022-12-31T15:03:01;15.90;99.90
14409;DHT22;7289;50.706;4.992;2022-12-31T15:05:31;15.90;99.90
14409;DHT22;7289;50.706;4.992;2022-12-31T15:08:11;15.90;99.90
14409;DHT22;7289;50.706;4.992;2022-12-31T15:10:48;15.80;99.90
14409;DHT22;7289;50.706;4.992;2022-12-31T15:13:29;15.90;99.90
14409;DHT22;7289;50.706;4.992;2022-12-31T15:16:22;15.90;99.90
14409;DHT22;7289;50.706;4.992;2022-12-31T15:19:22;15.90;99.90
14409;DHT22;7289;50.706;4.992;2022-12-31T15:21:58;15.90;99.90
14409;DHT22;7289;50.706;4.992;2022-12-31T15:24:31;15.90;99.90
14409;DHT22;7289;50.706;4.992;2022-12-31T15:27:01;15.80;99.90
14409;DHT22;7289;50.706;4.992;2022-12-31T15:29:31;15.70;99.90
14409;DHT22;7289;50.706;4.992;2022-12-31T15:32:02;15.70;99.90
14409;DHT22;7289;50.706;4.992;2022-12-31T15:34:32;15.60;99.90
14409;DHT22;7289;50.706;4.992;2022-12-31T15:37:02;15.60;99.90
14409;DHT22;7289;50.706;4.992;2022-12-31T15:39:42;15.60;99.90
14409;DHT22;7289;50.706;4.992;2022-12-31T15:42:32;15.50;99.90
14409;DHT22;7289;50.706;4.992;2022-12-31T15:45:12;15.40;99.90
14409;DHT22;7289;50.706;4.992;2022-12-31T15:47:45;15.30;99.90
14409;DHT22;7289;50.706;4.992;2022-12-31T15:50:16;15.30;99.90
14409;DHT22;7289;50.706;4.992;2022-12-31T15:52:49;15.30;99.90
14409;DHT22;7289;50.706;4.992;2022-12-31T15:55:25;15.20;99.90
14409;DHT22;7289;50.706;4.992;2022-12-31T15:57:55;15.20;99.90
14409;DHT22;7289;50.706;4.992;2022-12-31T16:00:33;15.20;99.90
14409;DHT22;7289;50.706;4.992;2022-12-31T16:03:03;15.20;99.90
14409;DHT22;7289;50.706;4.992;2022-12-31T16:05:33;15.20;99.90
14409;DHT22;7289;50.706;4.992;2022-12-31T16:08:03;15.20;99.90
14409;DHT22;7289;50.706;4.992;2022-12-31T16:10:33;15.10;99.90
14409;DHT22;7289;50.706;4.992;2022-12-31T16:13:01;15.10;99.90
14409;DHT22;7289;50.706;4.992;2022-12-31T16:15:31;15.10;99.90
14409;DHT22;7289;50.706;4.992;2022-12-31T16:18:02;15.00;99.90
14409;DHT22;7289;50.706;4.992;2022-12-31T16:20:32;15.00;99.90
14409;DHT22;7289;50.706;4.992;2022-12-31T16:23:01;15.00;99.90
14409;DHT22;7289;50.706;4.992;2022-12-31T16:25:32;15.00;99.90
14409;DHT22;7289;50.706;4.992;2022-12-31T16:28:01;15.00;99.90
14409;DHT22;7289;50.706;4.992;2022-12-31T16:30:31;14.90;99.90
14409;DHT22;7289;50.706;4.992;2022-12-31T16:33:03;14.90;99.90
14409;DHT22;7289;50.706;4.992;2022-12-31T16:35:33;14.90;99.90
14409;DHT22;7289;50.706;4.992;2022-12-31T16:38:10;14.90;99.90
14409;DHT22;7289;50.706;4.992;2022-12-31T16:40:42;14.90;99.90
14409;DHT22;7289;50.706;4.992;2022-12-31T16:43:24;14.80;99.90
14409;DHT22;7289;50.706;4.992;2022-12-31T16:45:55;14.80;99.90
14409;DHT22;7289;50.706;4.992;2022-12-31T16:48:24;14.80;99.90
14409;DHT22;7289;50.706;4.992;2022-12-31T16:50:54;14.70;99.90
14409;DHT22;7289;50.706;4.992;2022-12-31T16:53:26;14.70;99.90
14409;DHT22;7289;50.706;4.992;2022-12-31T16:56:00;14.70;99.90
14409;DHT22;7289;50.706;4.992;2022-12-31T16:58:30;14.70;99.90
14409;DHT22;7289;50.706;4.992;2022-12-31T17:01:09;14.60;99.90